createdAt,value
2019-02-22T00:00:24.597Z,1028.3
2019-02-22T00:01:05.184Z,1028.29
2019-02-22T00:01:45.799Z,1028.29
2019-02-22T00:02:26.396Z,1028.31
2019-02-22T00:03:07.010Z,1028.34
2019-02-22T00:03:47.656Z,1028.35
2019-02-22T00:04:28.312Z,1028.35
2019-02-22T00:05:09.105Z,1028.36
2019-02-22T00:05:49.770Z,1028.37
2019-02-22T00:06:30.401Z,1028.38
2019-02-22T00:07:11.016Z,1028.39
2019-02-22T00:07:51.656Z,1028.4
2019-02-22T00:08:32.270Z,1028.41
2019-02-22T00:09:12.856Z,1028.42
2019-02-22T00:09:53.492Z,1028.41
2019-02-22T00:10:34.127Z,1028.4
2019-02-22T00:11:14.780Z,1028.42
2019-02-22T00:11:55.440Z,1028.43
2019-02-22T00:12:36.054Z,1028.44
2019-02-22T00:13:16.654Z,1028.4
2019-02-22T00:13:57.272Z,1028.4
2019-02-22T00:14:37.969Z,1028.39
2019-02-22T00:15:18.626Z,1028.37
2019-02-22T00:15:59.244Z,1028.36
2019-02-22T00:16:39.872Z,1028.36
2019-02-22T00:17:20.462Z,1028.35
2019-02-22T00:18:01.061Z,1028.32
2019-02-22T00:18:41.706Z,1028.33
2019-02-22T00:19:22.325Z,1028.33
2019-02-22T00:20:02.913Z,1028.32
2019-02-22T00:20:43.620Z,1028.34
2019-02-22T00:21:24.192Z,1028.28
2019-02-22T00:22:04.826Z,1028.27
2019-02-22T00:22:45.422Z,1028.3
2019-02-22T00:23:26.024Z,1028.26
2019-02-22T00:24:06.635Z,1028.27
2019-02-22T00:24:47.251Z,1028.27
2019-02-22T00:25:27.862Z,1028.27
2019-02-22T00:26:10.954Z,1028.28
2019-02-22T00:26:49.069Z,1028.28
2019-02-22T00:27:29.660Z,1028.32
2019-02-22T00:28:10.278Z,1028.31
2019-02-22T00:28:50.874Z,1028.34
2019-02-22T00:29:31.483Z,1028.31
2019-02-22T00:30:12.108Z,1028.31
2019-02-22T00:30:52.733Z,1028.28
2019-02-22T00:31:33.342Z,1028.29
2019-02-22T00:32:13.938Z,1028.31
2019-02-22T00:32:54.532Z,1028.3
2019-02-22T00:33:35.136Z,1028.29
2019-02-22T00:34:15.722Z,1028.25
2019-02-22T00:34:56.342Z,1028.24
2019-02-22T00:35:36.931Z,1028.26
2019-02-22T00:36:17.604Z,1028.26
2019-02-22T00:36:58.265Z,1028.21
2019-02-22T00:37:38.756Z,1028.19
2019-02-22T00:38:19.340Z,1028.23
2019-02-22T00:38:59.978Z,1028.25
2019-02-22T00:39:40.586Z,1028.25
2019-02-22T00:40:21.188Z,1028.22
2019-02-22T00:41:01.814Z,1028.25
2019-02-22T00:41:42.426Z,1028.21
2019-02-22T00:42:23.032Z,1028.2
2019-02-22T00:43:03.661Z,1028.21
2019-02-22T00:43:44.253Z,1028.19
2019-02-22T00:44:24.854Z,1028.19
2019-02-22T00:45:05.469Z,1028.19
2019-02-22T00:45:46.062Z,1028.15
2019-02-22T00:46:26.670Z,1028.16
2019-02-22T00:47:07.278Z,1028.17
2019-02-22T00:47:47.884Z,1028.16
2019-02-22T00:48:28.477Z,1028.16
2019-02-22T00:49:09.070Z,1028.16
2019-02-22T00:49:49.660Z,1028.14
2019-02-22T00:50:30.262Z,1028.15
2019-02-22T00:51:10.880Z,1028.17
2019-02-22T00:51:51.466Z,1028.15
2019-02-22T00:52:32.056Z,1028.12
2019-02-22T00:53:12.660Z,1028.16
2019-02-22T00:53:53.264Z,1028.16
2019-02-22T00:54:33.870Z,1028.13
2019-02-22T00:55:14.460Z,1028.12
2019-02-22T00:55:55.182Z,1028.09
2019-02-22T00:56:35.789Z,1028.09
2019-02-22T00:57:16.392Z,1028.13
2019-02-22T00:57:56.986Z,1028.09
2019-02-22T00:58:37.578Z,1028.12
2019-02-22T00:59:18.187Z,1028.13
2019-02-22T00:59:58.788Z,1028.08
2019-02-22T01:00:39.396Z,1028.1
2019-02-22T01:01:21.072Z,1028.1
2019-02-22T01:02:01.682Z,1028.13
2019-02-22T01:02:46.013Z,1028.09
2019-02-22T01:03:26.626Z,1028.06
2019-02-22T01:04:07.258Z,1028.11
2019-02-22T01:04:47.890Z,1028.04
2019-02-22T01:05:28.510Z,1028.06
2019-02-22T01:06:09.120Z,1028.05
2019-02-22T01:06:49.837Z,1028.04
2019-02-22T01:07:30.560Z,1028.03
2019-02-22T01:08:11.584Z,1028.04
2019-02-22T01:08:52.192Z,1028.05
2019-02-22T01:09:32.876Z,1028.07
2019-02-22T01:10:13.500Z,1028.09
2019-02-22T01:10:54.096Z,1028.06
2019-02-22T01:11:34.692Z,1028.09
2019-02-22T01:12:15.290Z,1028.11
2019-02-22T01:12:55.896Z,1028.08
2019-02-22T01:13:36.561Z,1028.07
2019-02-22T01:14:17.166Z,1028.1
2019-02-22T01:14:57.793Z,1028.09
2019-02-22T01:15:38.400Z,1028.09
2019-02-22T01:16:18.993Z,1028.05
2019-02-22T01:16:59.632Z,1028.05
2019-02-22T01:17:40.231Z,1028.06
2019-02-22T01:18:20.832Z,1028.07
2019-02-22T01:19:01.440Z,1028.05
2019-02-22T01:19:42.040Z,1028.1
2019-02-22T01:20:24.256Z,1028.08
2019-02-22T01:21:04.878Z,1028.04
2019-02-22T01:21:45.495Z,1028.04
2019-02-22T01:22:26.088Z,1028.04
2019-02-22T01:23:06.679Z,1028.05
2019-02-22T01:23:47.272Z,1028.02
2019-02-22T01:24:27.878Z,1028.05
2019-02-22T01:25:08.485Z,1028.03
2019-02-22T01:25:49.097Z,1028
2019-02-22T01:26:29.708Z,1028.04
2019-02-22T01:27:10.322Z,1028.05
2019-02-22T01:27:50.951Z,1028.04
2019-02-22T01:28:31.560Z,1028.04
2019-02-22T01:29:12.174Z,1028.03
2019-02-22T01:29:52.788Z,1028.03
2019-02-22T01:30:33.392Z,1028.03
2019-02-22T01:31:14.006Z,1028.03
2019-02-22T01:31:54.615Z,1027.98
2019-02-22T01:32:35.214Z,1027.97
2019-02-22T01:33:15.826Z,1027.98
2019-02-22T01:33:56.420Z,1027.95
2019-02-22T01:34:37.002Z,1027.96
2019-02-22T01:35:17.613Z,1027.95
2019-02-22T01:35:58.220Z,1027.93
2019-02-22T01:36:38.822Z,1027.92
2019-02-22T01:37:19.421Z,1027.89
2019-02-22T01:38:00.029Z,1027.91
2019-02-22T01:38:40.645Z,1027.91
2019-02-22T01:39:21.282Z,1027.89
2019-02-22T01:40:01.904Z,1027.9
2019-02-22T01:40:43.872Z,1027.93
2019-02-22T01:41:23.088Z,1027.9
2019-02-22T01:42:03.671Z,1027.9
2019-02-22T01:42:44.286Z,1027.91
2019-02-22T01:43:24.898Z,1027.9
2019-02-22T01:44:05.498Z,1027.89
2019-02-22T01:44:46.098Z,1027.89
2019-02-22T01:45:26.714Z,1027.9
2019-02-22T01:46:07.330Z,1027.9
2019-02-22T01:46:47.940Z,1027.85
2019-02-22T01:47:28.551Z,1027.89
2019-02-22T01:48:09.188Z,1027.84
2019-02-22T01:48:49.778Z,1027.83
2019-02-22T01:49:30.372Z,1027.78
2019-02-22T01:50:10.981Z,1027.77
2019-02-22T01:50:51.571Z,1027.76
2019-02-22T01:51:32.182Z,1027.72
2019-02-22T01:52:12.788Z,1027.71
2019-02-22T01:52:53.442Z,1027.66
2019-02-22T01:53:34.037Z,1027.7
2019-02-22T01:54:14.646Z,1027.68
2019-02-22T01:54:55.235Z,1027.7
2019-02-22T01:55:35.834Z,1027.69
2019-02-22T01:56:16.428Z,1027.7
2019-02-22T01:56:57.056Z,1027.7
2019-02-22T01:57:37.671Z,1027.68
2019-02-22T01:58:18.286Z,1027.68
2019-02-22T01:58:58.951Z,1027.7
2019-02-22T01:59:39.550Z,1027.68
2019-02-22T02:00:20.148Z,1027.68
2019-02-22T02:01:00.752Z,1027.67
2019-02-22T02:01:41.356Z,1027.64
2019-02-22T02:02:21.974Z,1027.66
2019-02-22T02:03:02.568Z,1027.67
2019-02-22T02:03:43.156Z,1027.69
2019-02-22T02:04:23.771Z,1027.64
2019-02-22T02:05:04.364Z,1027.63
2019-02-22T02:05:44.968Z,1027.63
2019-02-22T02:06:25.560Z,1027.65
2019-02-22T02:07:06.184Z,1027.64
2019-02-22T02:07:46.792Z,1027.64
2019-02-22T02:08:27.404Z,1027.64
2019-02-22T02:09:08.006Z,1027.67
2019-02-22T02:09:48.608Z,1027.64
2019-02-22T02:10:29.222Z,1027.66
2019-02-22T02:11:09.826Z,1027.65
2019-02-22T02:11:50.432Z,1027.65
2019-02-22T02:12:31.030Z,1027.68
2019-02-22T02:13:11.629Z,1027.66
2019-02-22T02:13:52.224Z,1027.64
2019-02-22T02:14:32.826Z,1027.69
2019-02-22T02:15:13.428Z,1027.66
2019-02-22T02:15:54.033Z,1027.63
2019-02-22T02:16:34.647Z,1027.6
2019-02-22T02:17:17.539Z,1027.62
2019-02-22T02:17:55.828Z,1027.62
2019-02-22T02:18:36.414Z,1027.56
2019-02-22T02:19:17.000Z,1027.62
2019-02-22T02:19:57.618Z,1027.64
2019-02-22T02:20:38.276Z,1027.61
2019-02-22T02:21:18.938Z,1027.62
2019-02-22T02:21:59.536Z,1027.63
2019-02-22T02:22:40.166Z,1027.64
2019-02-22T02:23:20.779Z,1027.65
2019-02-22T02:24:01.366Z,1027.69
2019-02-22T02:24:41.983Z,1027.66
2019-02-22T02:25:22.592Z,1027.69
2019-02-22T02:26:03.187Z,1027.67
2019-02-22T02:26:43.772Z,1027.68
2019-02-22T02:27:24.372Z,1027.67
2019-02-22T02:28:04.960Z,1027.67
2019-02-22T02:28:45.566Z,1027.67
2019-02-22T02:29:26.156Z,1027.69
2019-02-22T02:30:06.779Z,1027.69
2019-02-22T02:30:47.375Z,1027.69
2019-02-22T02:31:27.998Z,1027.68
2019-02-22T02:32:08.588Z,1027.71
2019-02-22T02:32:49.183Z,1027.7
2019-02-22T02:33:29.776Z,1027.64
2019-02-22T02:34:10.392Z,1027.66
2019-02-22T02:34:50.989Z,1027.61
2019-02-22T02:35:31.586Z,1027.63
2019-02-22T02:36:12.196Z,1027.59
2019-02-22T02:36:52.795Z,1027.61
2019-02-22T02:37:33.404Z,1027.58
2019-02-22T02:38:14.036Z,1027.55
2019-02-22T02:38:54.637Z,1027.58
2019-02-22T02:39:35.269Z,1027.57
2019-02-22T02:40:15.854Z,1027.58
2019-02-22T02:41:07.037Z,1027.62
2019-02-22T02:41:37.101Z,1027.59
2019-02-22T02:42:17.730Z,1027.55
2019-02-22T02:42:58.332Z,1027.56
2019-02-22T02:43:38.953Z,1027.57
2019-02-22T02:44:19.629Z,1027.6
2019-02-22T02:45:00.529Z,1027.57
2019-02-22T02:45:42.410Z,1027.6
2019-02-22T02:46:23.174Z,1027.55
2019-02-22T02:47:03.772Z,1027.56
2019-02-22T02:47:44.414Z,1027.58
2019-02-22T02:48:25.084Z,1027.57
2019-02-22T02:49:05.734Z,1027.61
2019-02-22T02:49:46.328Z,1027.6
2019-02-22T02:50:26.926Z,1027.57
2019-02-22T02:51:07.557Z,1027.6
2019-02-22T02:51:48.170Z,1027.59
2019-02-22T02:52:28.772Z,1027.55
2019-02-22T02:53:09.382Z,1027.61
2019-02-22T02:53:49.998Z,1027.6
2019-02-22T02:54:30.610Z,1027.61
2019-02-22T02:55:11.275Z,1027.58
2019-02-22T02:55:51.894Z,1027.58
2019-02-22T02:56:32.574Z,1027.54
2019-02-22T02:57:13.265Z,1027.58
2019-02-22T02:57:53.875Z,1027.56
2019-02-22T02:58:34.540Z,1027.54
2019-02-22T02:59:15.779Z,1027.49
2019-02-22T02:59:56.460Z,1027.47
2019-02-22T03:00:37.063Z,1027.46
2019-02-22T03:01:17.653Z,1027.42
2019-02-22T03:01:58.505Z,1027.42
2019-02-22T03:02:39.168Z,1027.39
2019-02-22T03:03:19.778Z,1027.36
2019-02-22T03:04:00.525Z,1027.36
2019-02-22T03:04:41.542Z,1027.37
2019-02-22T03:05:23.298Z,1027.39
2019-02-22T03:06:03.895Z,1027.33
2019-02-22T03:06:44.522Z,1027.37
2019-02-22T03:07:25.137Z,1027.38
2019-02-22T03:08:05.748Z,1027.39
2019-02-22T03:08:46.351Z,1027.36
2019-02-22T03:09:26.946Z,1027.34
2019-02-22T03:10:07.576Z,1027.37
2019-02-22T03:10:48.184Z,1027.38
2019-02-22T03:11:28.781Z,1027.39
2019-02-22T03:12:09.398Z,1027.39
2019-02-22T03:12:50.006Z,1027.42
2019-02-22T03:13:30.592Z,1027.33
2019-02-22T03:14:11.215Z,1027.38
2019-02-22T03:14:51.855Z,1027.36
2019-02-22T03:15:32.470Z,1027.36
2019-02-22T03:16:13.065Z,1027.41
2019-02-22T03:16:53.670Z,1027.4
2019-02-22T03:17:34.285Z,1027.41
2019-02-22T03:18:14.883Z,1027.41
2019-02-22T03:18:55.490Z,1027.41
2019-02-22T03:19:36.091Z,1027.42
2019-02-22T03:20:16.691Z,1027.39
2019-02-22T03:20:57.297Z,1027.39
2019-02-22T03:21:37.900Z,1027.39
2019-02-22T03:22:18.495Z,1027.38
2019-02-22T03:22:59.100Z,1027.41
2019-02-22T03:23:39.721Z,1027.45
2019-02-22T03:24:20.320Z,1027.47
2019-02-22T03:25:00.918Z,1027.44
2019-02-22T03:25:41.517Z,1027.44
2019-02-22T03:26:22.127Z,1027.45
2019-02-22T03:27:02.723Z,1027.46
2019-02-22T03:27:43.339Z,1027.46
2019-02-22T03:28:23.925Z,1027.48
2019-02-22T03:29:04.519Z,1027.43
2019-02-22T03:29:45.125Z,1027.42
2019-02-22T03:30:25.712Z,1027.43
2019-02-22T03:31:06.320Z,1027.45
2019-02-22T03:31:46.963Z,1027.41
2019-02-22T03:32:27.575Z,1027.45
2019-02-22T03:33:08.184Z,1027.41
2019-02-22T03:33:48.775Z,1027.44
2019-02-22T03:34:29.370Z,1027.49
2019-02-22T03:35:09.973Z,1027.49
2019-02-22T03:35:50.569Z,1027.51
2019-02-22T03:36:31.175Z,1027.51
2019-02-22T03:37:11.793Z,1027.59
2019-02-22T03:37:52.387Z,1027.54
2019-02-22T03:38:33.003Z,1027.56
2019-02-22T03:39:13.623Z,1027.56
2019-02-22T03:39:54.266Z,1027.6
2019-02-22T03:40:34.854Z,1027.62
2019-02-22T03:41:15.455Z,1027.62
2019-02-22T03:41:56.051Z,1027.62
2019-02-22T03:42:36.661Z,1027.62
2019-02-22T03:43:17.305Z,1027.6
2019-02-22T03:43:57.915Z,1027.59
2019-02-22T03:44:38.515Z,1027.6
2019-02-22T03:45:19.123Z,1027.58
2019-02-22T03:45:59.772Z,1027.6
2019-02-22T03:46:40.377Z,1027.59
2019-02-22T03:47:20.972Z,1027.58
2019-02-22T03:48:01.591Z,1027.57
2019-02-22T03:48:42.211Z,1027.6
2019-02-22T03:49:22.861Z,1027.58
2019-02-22T03:50:03.476Z,1027.6
2019-02-22T03:50:44.071Z,1027.6
2019-02-22T03:51:24.689Z,1027.58
2019-02-22T03:52:05.273Z,1027.58
2019-02-22T03:52:45.895Z,1027.56
2019-02-22T03:53:26.501Z,1027.54
2019-02-22T03:54:07.123Z,1027.6
2019-02-22T03:54:47.732Z,1027.57
2019-02-22T03:55:28.341Z,1027.59
2019-02-22T03:56:08.937Z,1027.59
2019-02-22T03:56:49.541Z,1027.58
2019-02-22T03:57:30.141Z,1027.61
2019-02-22T03:58:10.778Z,1027.63
2019-02-22T03:58:51.364Z,1027.62
2019-02-22T03:59:31.965Z,1027.62
2019-02-22T04:00:12.603Z,1027.61
2019-02-22T04:00:53.205Z,1027.61
2019-02-22T04:01:33.811Z,1027.65
2019-02-22T04:02:14.415Z,1027.63
2019-02-22T04:02:55.008Z,1027.65
2019-02-22T04:03:35.621Z,1027.64
2019-02-22T04:04:16.225Z,1027.65
2019-02-22T04:04:56.839Z,1027.61
2019-02-22T04:05:37.429Z,1027.61
2019-02-22T04:06:18.050Z,1027.62
2019-02-22T04:06:58.649Z,1027.59
2019-02-22T04:07:39.248Z,1027.63
2019-02-22T04:08:19.839Z,1027.62
2019-02-22T04:09:00.459Z,1027.62
2019-02-22T04:09:41.062Z,1027.61
2019-02-22T04:10:21.665Z,1027.61
2019-02-22T04:11:02.276Z,1027.64
2019-02-22T04:11:45.896Z,1027.67
2019-02-22T04:12:23.484Z,1027.63
2019-02-22T04:13:04.090Z,1027.61
2019-02-22T04:13:44.715Z,1027.64
2019-02-22T04:14:25.391Z,1027.62
2019-02-22T04:15:05.986Z,1027.59
2019-02-22T04:15:46.605Z,1027.59
2019-02-22T04:16:27.223Z,1027.59
2019-02-22T04:17:07.831Z,1027.57
2019-02-22T04:17:48.447Z,1027.64
2019-02-22T04:18:29.052Z,1027.61
2019-02-22T04:19:09.665Z,1027.62
2019-02-22T04:19:50.265Z,1027.65
2019-02-22T04:20:30.850Z,1027.64
2019-02-22T04:21:11.462Z,1027.61
2019-02-22T04:21:52.085Z,1027.62
2019-02-22T04:22:32.673Z,1027.6
2019-02-22T04:23:13.277Z,1027.62
2019-02-22T04:23:53.877Z,1027.61
2019-02-22T04:24:34.491Z,1027.63
2019-02-22T04:25:15.105Z,1027.61
2019-02-22T04:25:55.695Z,1027.56
2019-02-22T04:26:36.307Z,1027.58
2019-02-22T04:27:16.905Z,1027.59
2019-02-22T04:27:57.505Z,1027.59
2019-02-22T04:28:38.091Z,1027.59
2019-02-22T04:29:18.692Z,1027.57
2019-02-22T04:29:59.292Z,1027.57
2019-02-22T04:30:39.895Z,1027.52
2019-02-22T04:31:20.495Z,1027.56
2019-02-22T04:32:01.098Z,1027.54
2019-02-22T04:32:41.729Z,1027.53
2019-02-22T04:33:22.357Z,1027.52
2019-02-22T04:34:02.957Z,1027.51
2019-02-22T04:34:43.585Z,1027.51
2019-02-22T04:35:24.168Z,1027.52
2019-02-22T04:36:04.812Z,1027.49
2019-02-22T04:36:45.409Z,1027.49
2019-02-22T04:37:26.027Z,1027.46
2019-02-22T04:38:06.628Z,1027.51
2019-02-22T04:38:47.231Z,1027.53
2019-02-22T04:39:27.830Z,1027.53
2019-02-22T04:40:08.436Z,1027.55
2019-02-22T04:40:49.047Z,1027.53
2019-02-22T04:41:29.639Z,1027.55
2019-02-22T04:42:10.271Z,1027.58
2019-02-22T04:42:50.880Z,1027.6
2019-02-22T04:43:31.475Z,1027.59
2019-02-22T04:44:12.062Z,1027.63
2019-02-22T04:44:52.663Z,1027.66
2019-02-22T04:45:33.270Z,1027.67
2019-02-22T04:46:13.883Z,1027.66
2019-02-22T04:46:54.489Z,1027.71
2019-02-22T04:47:35.109Z,1027.73
2019-02-22T04:48:15.725Z,1027.7
2019-02-22T04:48:56.323Z,1027.69
2019-02-22T04:49:36.917Z,1027.73
2019-02-22T04:50:17.533Z,1027.74
2019-02-22T04:50:58.163Z,1027.75
2019-02-22T04:51:38.777Z,1027.77
2019-02-22T04:52:19.383Z,1027.74
2019-02-22T04:52:59.984Z,1027.74
2019-02-22T04:53:40.574Z,1027.76
2019-02-22T04:54:21.192Z,1027.75
2019-02-22T04:55:01.786Z,1027.72
2019-02-22T04:55:42.373Z,1027.7
2019-02-22T04:56:22.979Z,1027.69
2019-02-22T04:57:03.593Z,1027.73
2019-02-22T04:57:44.187Z,1027.68
2019-02-22T04:58:24.797Z,1027.68
2019-02-22T04:59:05.415Z,1027.67
2019-02-22T04:59:46.016Z,1027.65
2019-02-22T05:00:26.610Z,1027.65
2019-02-22T05:01:07.200Z,1027.62
2019-02-22T05:01:47.793Z,1027.59
2019-02-22T05:02:28.385Z,1027.57
2019-02-22T05:03:08.997Z,1027.58
2019-02-22T05:03:49.627Z,1027.58
2019-02-22T05:04:30.221Z,1027.57
2019-02-22T05:05:10.821Z,1027.57
2019-02-22T05:05:51.427Z,1027.57
2019-02-22T05:06:32.014Z,1027.55
2019-02-22T05:07:12.619Z,1027.56
2019-02-22T05:07:53.211Z,1027.55
2019-02-22T05:08:33.831Z,1027.55
2019-02-22T05:09:14.449Z,1027.59
2019-02-22T05:09:55.075Z,1027.56
2019-02-22T05:10:35.673Z,1027.56
2019-02-22T05:11:16.273Z,1027.52
2019-02-22T05:11:56.885Z,1027.57
2019-02-22T05:12:37.483Z,1027.53
2019-02-22T05:13:18.099Z,1027.48
2019-02-22T05:13:58.738Z,1027.48
2019-02-22T05:14:39.309Z,1027.5
2019-02-22T05:15:19.934Z,1027.5
2019-02-22T05:16:00.552Z,1027.46
2019-02-22T05:16:41.173Z,1027.45
2019-02-22T05:17:21.784Z,1027.5
2019-02-22T05:18:02.402Z,1027.48
2019-02-22T05:18:43.017Z,1027.5
2019-02-22T05:19:23.603Z,1027.56
2019-02-22T05:20:04.240Z,1027.5
2019-02-22T05:20:44.870Z,1027.5
2019-02-22T05:21:25.477Z,1027.51
2019-02-22T05:22:06.093Z,1027.49
2019-02-22T05:22:46.727Z,1027.5
2019-02-22T05:23:27.329Z,1027.51
2019-02-22T05:24:07.927Z,1027.47
2019-02-22T05:24:48.545Z,1027.48
2019-02-22T05:25:29.161Z,1027.45
2019-02-22T05:26:09.757Z,1027.4
2019-02-22T05:26:50.369Z,1027.42
2019-02-22T05:27:30.991Z,1027.39
2019-02-22T05:28:11.585Z,1027.4
2019-02-22T05:28:52.235Z,1027.39
2019-02-22T05:29:32.846Z,1027.37
2019-02-22T05:30:13.451Z,1027.41
2019-02-22T05:30:54.119Z,1027.42
2019-02-22T05:31:34.739Z,1027.4
2019-02-22T05:32:15.335Z,1027.4
2019-02-22T05:32:55.927Z,1027.34
2019-02-22T05:33:36.536Z,1027.36
2019-02-22T05:34:17.141Z,1027.37
2019-02-22T05:34:57.759Z,1027.35
2019-02-22T05:35:38.373Z,1027.32
2019-02-22T05:36:18.993Z,1027.29
2019-02-22T05:36:59.599Z,1027.32
2019-02-22T05:37:40.197Z,1027.3
2019-02-22T05:38:20.865Z,1027.25
2019-02-22T05:39:01.457Z,1027.26
2019-02-22T05:39:42.065Z,1027.26
2019-02-22T05:40:22.654Z,1027.23
2019-02-22T05:41:03.266Z,1027.27
2019-02-22T05:41:43.867Z,1027.22
2019-02-22T05:42:24.477Z,1027.24
2019-02-22T05:43:05.070Z,1027.23
2019-02-22T05:43:45.667Z,1027.24
2019-02-22T05:44:26.314Z,1027.23
2019-02-22T05:45:06.933Z,1027.18
2019-02-22T05:45:47.542Z,1027.22
2019-02-22T05:46:28.171Z,1027.21
2019-02-22T05:47:08.767Z,1027.22
2019-02-22T05:47:49.392Z,1027.19
2019-02-22T05:48:29.998Z,1027.19
2019-02-22T05:49:10.589Z,1027.2
2019-02-22T05:49:51.193Z,1027.17
2019-02-22T05:50:31.785Z,1027.17
2019-02-22T05:51:12.391Z,1027.17
2019-02-22T05:51:53.022Z,1027.15
2019-02-22T05:52:33.628Z,1027.11
2019-02-22T05:53:14.238Z,1027.11
2019-02-22T05:53:54.835Z,1027.11
2019-02-22T05:54:35.446Z,1027.11
2019-02-22T05:55:16.057Z,1027.13
2019-02-22T05:55:56.661Z,1027.07
2019-02-22T05:56:37.672Z,1027.08
2019-02-22T05:57:18.273Z,1027.11
2019-02-22T05:57:58.964Z,1027.1
2019-02-22T05:58:39.582Z,1027.07
2019-02-22T05:59:20.687Z,1027.06
2019-02-22T06:00:01.333Z,1027.07
2019-02-22T06:00:42.038Z,1027.13
2019-02-22T06:01:22.625Z,1027.12
2019-02-22T06:02:03.219Z,1027.11
2019-02-22T06:02:43.820Z,1027.06
2019-02-22T06:03:24.429Z,1027.08
2019-02-22T06:04:05.033Z,1027.11
2019-02-22T06:04:45.643Z,1027.08
2019-02-22T06:05:26.399Z,1027.04
2019-02-22T06:06:07.011Z,1027.01
2019-02-22T06:06:47.605Z,1027.02
2019-02-22T06:07:28.219Z,1026.99
2019-02-22T06:08:09.208Z,1026.98
2019-02-22T06:08:49.419Z,1026.97
2019-02-22T06:09:30.048Z,1026.95
2019-02-22T06:10:10.674Z,1026.95
2019-02-22T06:10:51.327Z,1026.97
2019-02-22T06:11:31.959Z,1026.94
2019-02-22T06:12:12.567Z,1026.95
2019-02-22T06:12:53.172Z,1026.95
2019-02-22T06:13:33.745Z,1026.95
2019-02-22T06:14:14.339Z,1026.97
2019-02-22T06:14:54.945Z,1027.04
2019-02-22T06:15:35.570Z,1027
2019-02-22T06:16:16.191Z,1026.96
2019-02-22T06:16:56.805Z,1026.99
2019-02-22T06:17:37.395Z,1027.03
2019-02-22T06:18:18.009Z,1026.97
2019-02-22T06:18:58.603Z,1027.01
2019-02-22T06:19:39.209Z,1027.01
2019-02-22T06:20:19.811Z,1027.02
2019-02-22T06:21:00.419Z,1027
2019-02-22T06:21:41.022Z,1026.98
2019-02-22T06:22:29.321Z,1027.04
2019-02-22T06:23:02.265Z,1027.04
2019-02-22T06:23:42.835Z,1027.09
2019-02-22T06:24:23.458Z,1027.12
2019-02-22T06:25:04.063Z,1027.09
2019-02-22T06:25:44.693Z,1027.1
2019-02-22T06:26:25.283Z,1027.1
2019-02-22T06:27:05.883Z,1027.12
2019-02-22T06:27:46.483Z,1027.15
2019-02-22T06:28:27.085Z,1027.15
2019-02-22T06:29:07.685Z,1027.18
2019-02-22T06:29:49.324Z,1027.19
2019-02-22T06:30:28.888Z,1027.19
2019-02-22T06:31:09.533Z,1027.17
2019-02-22T06:31:50.172Z,1027.22
2019-02-22T06:32:30.797Z,1027.22
2019-02-22T06:33:11.419Z,1027.23
2019-02-22T06:33:52.015Z,1027.2
2019-02-22T06:34:33.225Z,1027.18
2019-02-22T06:35:13.839Z,1027.21
2019-02-22T06:35:54.475Z,1027.22
2019-02-22T06:36:36.538Z,1027.21
2019-02-22T06:37:17.271Z,1027.21
2019-02-22T06:37:57.843Z,1027.2
2019-02-22T06:38:38.571Z,1027.19
2019-02-22T06:39:20.965Z,1027.2
2019-02-22T06:40:06.052Z,1027.23
2019-02-22T06:40:48.064Z,1027.22
2019-02-22T06:41:27.296Z,1027.23
2019-02-22T06:42:07.887Z,1027.23
2019-02-22T06:42:48.487Z,1027.22
2019-02-22T06:43:29.077Z,1027.23
2019-02-22T06:44:11.888Z,1027.18
2019-02-22T06:44:50.327Z,1027.22
2019-02-22T06:45:31.010Z,1027.21
2019-02-22T06:46:11.673Z,1027.24
2019-02-22T06:46:52.283Z,1027.26
2019-02-22T06:47:32.925Z,1027.3
2019-02-22T06:48:13.545Z,1027.28
2019-02-22T06:48:54.155Z,1027.34
2019-02-22T06:49:34.864Z,1027.32
2019-02-22T06:50:15.465Z,1027.32
2019-02-22T06:50:56.069Z,1027.3
2019-02-22T06:51:36.665Z,1027.29
2019-02-22T06:52:17.299Z,1027.27
2019-02-22T06:52:57.935Z,1027.29
2019-02-22T06:53:38.537Z,1027.27
2019-02-22T06:54:19.141Z,1027.26
2019-02-22T06:54:59.767Z,1027.31
2019-02-22T06:55:40.385Z,1027.31
2019-02-22T06:56:21.013Z,1027.31
2019-02-22T06:57:01.601Z,1027.3
2019-02-22T06:57:42.220Z,1027.34
2019-02-22T06:58:22.843Z,1027.31
2019-02-22T06:59:03.445Z,1027.31
2019-02-22T06:59:44.043Z,1027.29
2019-02-22T07:00:24.642Z,1027.32
2019-02-22T07:01:05.257Z,1027.34
2019-02-22T07:01:45.857Z,1027.32
2019-02-22T07:02:26.516Z,1027.32
2019-02-22T07:03:07.133Z,1027.37
2019-02-22T07:03:47.765Z,1027.32
2019-02-22T07:04:28.361Z,1027.32
2019-02-22T07:05:08.969Z,1027.3
2019-02-22T07:05:49.577Z,1027.27
2019-02-22T07:06:30.159Z,1027.26
2019-02-22T07:07:10.763Z,1027.25
2019-02-22T07:07:51.391Z,1027.26
2019-02-22T07:08:31.990Z,1027.26
2019-02-22T07:09:12.652Z,1027.25
2019-02-22T07:09:53.239Z,1027.24
2019-02-22T07:10:33.835Z,1027.28
2019-02-22T07:11:14.429Z,1027.32
2019-02-22T07:11:55.032Z,1027.33
2019-02-22T07:12:35.637Z,1027.36
2019-02-22T07:13:16.236Z,1027.35
2019-02-22T07:13:56.845Z,1027.4
2019-02-22T07:14:37.448Z,1027.4
2019-02-22T07:15:18.056Z,1027.44
2019-02-22T07:15:58.660Z,1027.46
2019-02-22T07:16:39.279Z,1027.44
2019-02-22T07:17:19.911Z,1027.48
2019-02-22T07:18:00.504Z,1027.5
2019-02-22T07:18:41.122Z,1027.49
2019-02-22T07:19:21.811Z,1027.49
2019-02-22T07:20:02.419Z,1027.48
2019-02-22T07:20:43.023Z,1027.48
2019-02-22T07:21:23.633Z,1027.5
2019-02-22T07:22:04.256Z,1027.5
2019-02-22T07:22:44.867Z,1027.51
2019-02-22T07:23:27.445Z,1027.5
2019-02-22T07:24:08.061Z,1027.5
2019-02-22T07:24:49.058Z,1027.47
2019-02-22T07:25:29.670Z,1027.46
2019-02-22T07:26:10.443Z,1027.45
2019-02-22T07:26:51.297Z,1027.44
2019-02-22T07:27:31.905Z,1027.43
2019-02-22T07:28:12.493Z,1027.41
2019-02-22T07:28:53.096Z,1027.42
2019-02-22T07:29:33.712Z,1027.46
2019-02-22T07:30:14.349Z,1027.51
2019-02-22T07:30:54.932Z,1027.48
2019-02-22T07:31:35.577Z,1027.53
2019-02-22T07:32:16.274Z,1027.53
2019-02-22T07:32:56.861Z,1027.55
2019-02-22T07:33:37.419Z,1027.52
2019-02-22T07:34:18.048Z,1027.58
2019-02-22T07:34:58.675Z,1027.56
2019-02-22T07:35:39.577Z,1027.61
2019-02-22T07:36:20.181Z,1027.6
2019-02-22T07:37:00.962Z,1027.61
2019-02-22T07:37:41.552Z,1027.6
2019-02-22T07:38:22.160Z,1027.62
2019-02-22T07:39:02.754Z,1027.65
2019-02-22T07:39:43.345Z,1027.68
2019-02-22T07:40:23.938Z,1027.72
2019-02-22T07:41:04.546Z,1027.73
2019-02-22T07:41:45.148Z,1027.74
2019-02-22T07:42:26.307Z,1027.76
2019-02-22T07:43:08.126Z,1027.77
2019-02-22T07:43:47.597Z,1027.77
2019-02-22T07:44:28.205Z,1027.74
2019-02-22T07:45:08.795Z,1027.8
2019-02-22T07:45:49.404Z,1027.8
2019-02-22T07:46:30.173Z,1027.79
2019-02-22T07:47:12.143Z,1027.78
2019-02-22T07:47:52.751Z,1027.82
2019-02-22T07:48:33.361Z,1027.79
2019-02-22T07:49:13.974Z,1027.83
2019-02-22T07:49:54.566Z,1027.82
2019-02-22T07:50:35.259Z,1027.79
2019-02-22T07:51:15.796Z,1027.78
2019-02-22T07:51:56.410Z,1027.73
2019-02-22T07:52:37.002Z,1027.75
2019-02-22T07:53:17.586Z,1027.72
2019-02-22T07:53:58.215Z,1027.71
2019-02-22T07:54:38.839Z,1027.67
2019-02-22T07:55:19.457Z,1027.68
2019-02-22T07:56:00.066Z,1027.72
2019-02-22T07:56:40.706Z,1027.7
2019-02-22T07:57:21.343Z,1027.69
2019-02-22T07:58:01.961Z,1027.71
2019-02-22T07:58:42.569Z,1027.75
2019-02-22T07:59:23.171Z,1027.73
2019-02-22T08:00:03.786Z,1027.72
2019-02-22T08:00:44.382Z,1027.73
2019-02-22T08:01:26.872Z,1027.74
2019-02-22T08:02:05.573Z,1027.72
2019-02-22T08:02:46.178Z,1027.72
2019-02-22T08:03:26.778Z,1027.73
2019-02-22T08:04:07.393Z,1027.74
2019-02-22T08:04:47.984Z,1027.72
2019-02-22T08:05:28.604Z,1027.72
2019-02-22T08:06:09.199Z,1027.74
2019-02-22T08:06:49.806Z,1027.72
2019-02-22T08:07:30.472Z,1027.72
2019-02-22T08:08:11.085Z,1027.73
2019-02-22T08:08:51.731Z,1027.72
2019-02-22T08:09:32.416Z,1027.67
2019-02-22T08:10:13.069Z,1027.67
2019-02-22T08:10:53.934Z,1027.71
2019-02-22T08:11:34.560Z,1027.67
2019-02-22T08:12:15.161Z,1027.64
2019-02-22T08:12:55.834Z,1027.66
2019-02-22T08:13:36.654Z,1027.63